Time;durP1;ratioP1;P1;durP2;ratioP2;P2;SDS_P1;SDS_P2;PMS_P1;PMS_P2;Temp;Humidity;BMP_temperature;BMP_pressure;BME280_temperature;BME280_humidity;BME280_pressure;Samples;Min_cycle;Max_cycle;Signal;HPM_P1;HPM_P2
2023/07/29 00:00:47;;;;;;;12.80;11.88;;;;;;;;;;5113935;28;20458;-81
2023/07/29 00:03:13;;;;;;;13.05;12.05;;;;;;;;;;5096737;28;20401;-81
2023/07/29 00:05:39;;;;;;;12.73;11.80;;;;;;;;;;5113776;28;20089;-81
2023/07/29 00:08:06;;;;;;;13.30;12.00;;;;;;;;;;5113845;28;20039;-81
2023/07/29 00:10:32;;;;;;;13.70;12.48;;;;;;;;;;5113398;28;20047;-81
2023/07/29 00:12:59;;;;;;;12.10;11.07;;;;;;;;;;5113537;28;20098;-81
2023/07/29 00:15:25;;;;;;;12.55;11.40;;;;;;;;;;5113829;28;20051;-81
2023/07/29 00:17:51;;;;;;;12.30;11.20;;;;;;;;;;5114851;28;20055;-81
2023/07/29 00:20:17;;;;;;;11.32;10.23;;;;;;;;;;5096525;28;20058;-81
2023/07/29 00:22:43;;;;;;;10.82;9.95;;;;;;;;;;5113342;28;20043;-81
2023/07/29 00:25:09;;;;;;;10.48;9.57;;;;;;;;;;5118236;28;20047;-81
2023/07/29 00:27:35;;;;;;;11.23;10.35;;;;;;;;;;5117902;28;20047;-82
2023/07/29 00:30:01;;;;;;;9.05;8.23;;;;;;;;;;5117903;28;20048;-81
2023/07/29 00:32:30;;;;;;;8.55;7.95;;;;;;;;;;5118691;28;20411;-81
2023/07/29 00:34:57;;;;;;;9.00;8.18;;;;;;;;;;5118971;28;20087;-81
2023/07/29 00:37:23;;;;;;;7.93;7.32;;;;;;;;;;5118247;28;20043;-81
2023/07/29 00:39:49;;;;;;;8.85;8.20;;;;;;;;;;5118243;28;20500;-81
2023/07/29 00:42:15;;;;;;;8.52;7.82;;;;;;;;;;5118717;28;20115;-81
2023/07/29 00:44:41;;;;;;;8.10;7.28;;;;;;;;;;5117392;28;20040;-80
2023/07/29 00:47:07;;;;;;;7.50;6.90;;;;;;;;;;5117694;28;20055;-81
2023/07/29 00:49:34;;;;;;;7.97;7.38;;;;;;;;;;5118824;28;20085;-81
2023/07/29 00:52:00;;;;;;;7.70;7.00;;;;;;;;;;5117946;28;20043;-81
2023/07/29 00:54:26;;;;;;;8.02;7.30;;;;;;;;;;5099989;28;20039;-81
2023/07/29 00:56:52;;;;;;;7.45;6.95;;;;;;;;;;5117601;28;20040;-81
2023/07/29 00:59:18;;;;;;;7.65;6.85;;;;;;;;;;5118546;28;20447;-82
2023/07/29 01:01:44;;;;;;;7.82;7.30;;;;;;;;;;5118112;28;20121;-81
2023/07/29 01:04:10;;;;;;;6.85;6.45;;;;;;;;;;5100547;28;20205;-81
2023/07/29 01:06:49;;;;;;;7.65;7.10;;;;;;;;;;5101191;28;20373;-81
2023/07/29 01:09:24;;;;;;;6.55;6.05;;;;;;;;;;5117199;28;20496;-81
2023/07/29 01:11:53;;;;;;;6.70;6.28;;;;;;;;;;5117574;28;20043;-81
2023/07/29 01:14:19;;;;;;;6.75;6.35;;;;;;;;;;5100921;28;20126;-81
2023/07/29 01:16:53;;;;;;;7.25;6.70;;;;;;;;;;5117948;28;20040;-81
2023/07/29 01:19:28;;;;;;;6.88;6.47;;;;;;;;;;5116326;28;20094;-81
2023/07/29 01:21:55;;;;;;;7.15;6.63;;;;;;;;;;5099476;28;20055;-81
2023/07/29 01:24:21;;;;;;;7.53;7.00;;;;;;;;;;5116955;28;20052;-81
2023/07/29 01:26:48;;;;;;;7.03;6.53;;;;;;;;;;5117119;28;20055;-80
2023/07/29 01:29:14;;;;;;;6.85;6.45;;;;;;;;;;5116302;28;20044;-81
2023/07/29 01:31:43;;;;;;;8.00;7.50;;;;;;;;;;5116981;28;20377;-81
2023/07/29 01:34:12;;;;;;;9.07;8.35;;;;;;;;;;5115817;28;20047;-81
2023/07/29 01:36:40;;;;;;;8.07;7.47;;;;;;;;;;5115657;28;20052;-81
2023/07/29 01:39:08;;;;;;;8.73;8.23;;;;;;;;;;5116927;28;20040;-81
2023/07/29 01:41:34;;;;;;;8.32;7.72;;;;;;;;;;5115818;28;20496;-81
2023/07/29 01:44:01;;;;;;;8.35;7.78;;;;;;;;;;5098776;28;20051;-81
2023/07/29 01:46:27;;;;;;;8.32;7.82;;;;;;;;;;5115971;28;20129;-81
2023/07/29 01:48:54;;;;;;;8.18;7.53;;;;;;;;;;5117435;28;20084;-81
2023/07/29 01:51:21;;;;;;;9.63;8.82;;;;;;;;;;5115912;28;20439;-80
2023/07/29 01:53:47;;;;;;;9.63;8.65;;;;;;;;;;5098663;28;20047;-80
2023/07/29 01:56:13;;;;;;;9.13;8.50;;;;;;;;;;5099107;28;20104;-81
2023/07/29 01:58:39;;;;;;;10.18;9.48;;;;;;;;;;5082523;28;20082;-81
2023/07/29 02:01:05;;;;;;;9.32;8.68;;;;;;;;;;5116825;28;20087;-81
2023/07/29 02:03:31;;;;;;;9.18;8.48;;;;;;;;;;5115886;28;20043;-81
2023/07/29 02:05:57;;;;;;;10.20;9.20;;;;;;;;;;5116524;28;20047;-81
2023/07/29 02:08:23;;;;;;;7.80;7.13;;;;;;;;;;5116865;28;20087;-80
2023/07/29 02:10:50;;;;;;;8.80;8.20;;;;;;;;;;5117514;28;20040;-81
2023/07/29 02:13:16;;;;;;;8.18;7.68;;;;;;;;;;5081438;28;20408;-80
2023/07/29 02:15:42;;;;;;;7.68;7.07;;;;;;;;;;5115560;28;20112;-80
2023/07/29 02:18:08;;;;;;;8.05;7.35;;;;;;;;;;5115173;28;20047;-80
2023/07/29 02:20:34;;;;;;;6.78;6.18;;;;;;;;;;5098504;28;20101;-80
2023/07/29 02:23:00;;;;;;;7.65;6.53;;;;;;;;;;5098227;28;20051;-80
2023/07/29 02:25:26;;;;;;;6.47;5.95;;;;;;;;;;5116017;28;20039;-81
2023/07/29 02:27:52;;;;;;;6.07;5.68;;;;;;;;;;5115110;28;20056;-80
2023/07/29 02:30:18;;;;;;;6.30;5.80;;;;;;;;;;5115537;28;20050;-81
2023/07/29 02:32:44;;;;;;;6.28;5.68;;;;;;;;;;5114690;28;20047;-80
2023/07/29 02:35:12;;;;;;;6.18;5.68;;;;;;;;;;5116037;28;20047;-80
2023/07/29 02:37:38;;;;;;;4.95;4.65;;;;;;;;;;5115450;28;20043;-81
2023/07/29 02:40:05;;;;;;;4.93;4.57;;;;;;;;;;5098907;28;20047;-81
2023/07/29 02:42:32;;;;;;;4.60;4.30;;;;;;;;;;5114501;28;20397;-81
2023/07/29 02:44:58;;;;;;;4.28;3.97;;;;;;;;;;5097801;28;20051;-80
2023/07/29 02:47:24;;;;;;;4.55;3.97;;;;;;;;;;5097781;28;20063;-80
2023/07/29 02:49:50;;;;;;;31.30;3.22;;;;;;;;;;5116558;28;20066;-80
2023/07/29 02:52:17;;;;;;;4.22;3.92;;;;;;;;;;5115494;28;20047;-80
2023/07/29 02:54:43;;;;;;;3.80;3.55;;;;;;;;;;5114387;28;20052;-79
2023/07/29 02:57:09;;;;;;;72.70;8.07;;;;;;;;;;5114746;28;20063;-80
2023/07/29 02:59:35;;;;;;;4.18;3.97;;;;;;;;;;5114486;28;20048;-80
2023/07/29 03:02:01;;;;;;;5.35;4.90;;;;;;;;;;5115991;28;20055;-80
2023/07/29 03:04:27;;;;;;;4.20;3.90;;;;;;;;;;5114446;28;20051;-80
2023/07/29 03:06:53;;;;;;;4.28;3.97;;;;;;;;;;5114291;28;20538;-80
2023/07/29 03:09:19;;;;;;;4.53;4.13;;;;;;;;;;5114769;28;20047;-81
2023/07/29 03:11:46;;;;;;;4.50;4.10;;;;;;;;;;5114442;28;20043;-81
2023/07/29 03:14:12;;;;;;;4.10;3.88;;;;;;;;;;5115413;28;20054;-80
2023/07/29 03:16:38;;;;;;;3.70;3.50;;;;;;;;;;5114857;28;20040;-80
2023/07/29 03:19:06;;;;;;;3.92;3.63;;;;;;;;;;5113756;28;20047;-80
2023/07/29 03:21:32;;;;;;;4.60;4.15;;;;;;;;;;5113522;28;20052;-81
2023/07/29 03:23:58;;;;;;;6.05;3.80;;;;;;;;;;5115051;28;20055;-81
2023/07/29 03:26:25;;;;;;;3.60;3.40;;;;;;;;;;5116412;28;20043;-81
2023/07/29 03:28:51;;;;;;;3.53;3.28;;;;;;;;;;5114315;28;20054;-81
2023/07/29 03:31:17;;;;;;;3.38;3.17;;;;;;;;;;5113930;28;20051;-80
2023/07/29 03:33:43;;;;;;;3.20;3.00;;;;;;;;;;5113342;28;20048;-80
2023/07/29 03:36:09;;;;;;;3.92;2.53;;;;;;;;;;5115491;28;20420;-80
2023/07/29 03:38:39;;;;;;;2.95;2.50;;;;;;;;;;5113397;28;20048;-81
2023/07/29 03:41:05;;;;;;;4.82;3.15;;;;;;;;;;5081238;28;20104;-80
2023/07/29 03:43:31;;;;;;;2.65;2.45;;;;;;;;;;5113395;28;20058;-80
2023/07/29 03:45:57;;;;;;;4.05;2.03;;;;;;;;;;5113602;28;20049;-81
2023/07/29 03:48:24;;;;;;;2.00;1.65;;;;;;;;;;5113268;28;20047;-81
2023/07/29 03:50:50;;;;;;;2.75;1.52;;;;;;;;;;5114308;28;20429;-80
2023/07/29 03:53:16;;;;;;;1.45;1.35;;;;;;;;;;5113643;28;20066;-81
2023/07/29 03:55:43;;;;;;;2.50;1.58;;;;;;;;;;5113408;28;20083;-80
2023/07/29 03:58:09;;;;;;;1.55;1.25;;;;;;;;;;5113806;28;20048;-80
2023/07/29 04:00:35;;;;;;;1.90;1.40;;;;;;;;;;5096589;28;20051;-80
2023/07/29 04:03:01;;;;;;;1.42;1.30;;;;;;;;;;5114858;28;20438;-80
2023/07/29 04:05:27;;;;;;;1.13;1.02;;;;;;;;;;5113480;28;20055;-80
2023/07/29 04:07:54;;;;;;;2.05;0.95;;;;;;;;;;5113350;28;20489;-80
2023/07/29 04:10:20;;;;;;;1.08;0.98;;;;;;;;;;5114160;28;20106;-81
2023/07/29 04:12:46;;;;;;;1.58;1.00;;;;;;;;;;5113392;28;20066;-80
2023/07/29 04:15:12;;;;;;;1.63;0.88;;;;;;;;;;5114344;28;20079;-80
2023/07/29 04:17:38;;;;;;;1.50;1.10;;;;;;;;;;5114262;28;20043;-80
2023/07/29 04:20:04;;;;;;;1.30;1.20;;;;;;;;;;5114039;28;20142;-80
2023/07/29 04:22:30;;;;;;;1.67;1.20;;;;;;;;;;5096472;28;20549;-80
2023/07/29 04:24:57;;;;;;;1.00;0.90;;;;;;;;;;5113965;28;20040;-80
2023/07/29 04:27:23;;;;;;;1.30;0.70;;;;;;;;;;5112653;28;20048;-80
2023/07/29 04:29:49;;;;;;;2.30;0.88;;;;;;;;;;5112887;28;20051;-81
2023/07/29 04:32:15;;;;;;;0.90;0.80;;;;;;;;;;5112979;28;20048;-80
2023/07/29 04:34:41;;;;;;;2.33;0.75;;;;;;;;;;5112753;28;20058;-81
2023/07/29 04:37:07;;;;;;;1.10;0.77;;;;;;;;;;5114521;28;20320;-80
2023/07/29 04:39:33;;;;;;;1.00;0.90;;;;;;;;;;5113729;28;20052;-81
2023/07/29 04:42:00;;;;;;;1.70;1.00;;;;;;;;;;5112958;28;20063;-80
2023/07/29 04:44:26;;;;;;;2.25;1.00;;;;;;;;;;5113667;28;20126;-80
2023/07/29 04:46:52;;;;;;;3.10;0.88;;;;;;;;;;5095885;28;20050;-80
2023/07/29 04:49:19;;;;;;;1.63;0.80;;;;;;;;;;5113625;28;20135;-80
2023/07/29 04:51:45;;;;;;;1.70;1.00;;;;;;;;;;5112853;28;20047;-80
2023/07/29 04:54:11;;;;;;;2.05;0.90;;;;;;;;;;5114444;28;20046;-80
2023/07/29 04:56:37;;;;;;;1.13;0.90;;;;;;;;;;5112647;28;20370;-80
2023/07/29 04:59:04;;;;;;;2.67;0.95;;;;;;;;;;5113599;28;20044;-80
2023/07/29 05:01:30;;;;;;;1.90;0.93;;;;;;;;;;5114134;28;20052;-79
2023/07/29 05:03:56;;;;;;;3.33;0.98;;;;;;;;;;5113678;28;20051;-81
2023/07/29 05:06:22;;;;;;;2.45;1.13;;;;;;;;;;5112600;28;20486;-80
2023/07/29 05:08:48;;;;;;;2.60;1.42;;;;;;;;;;5112743;28;20381;-80
2023/07/29 05:11:14;;;;;;;2.03;1.30;;;;;;;;;;5116436;28;20044;-80
2023/07/29 05:13:42;;;;;;;2.50;1.00;;;;;;;;;;5116701;28;20048;-80
2023/07/29 05:16:08;;;;;;;3.22;1.08;;;;;;;;;;5116270;28;20130;-80
2023/07/29 05:18:34;;;;;;;1.95;1.25;;;;;;;;;;5099116;28;20047;-81
2023/07/29 05:21:00;;;;;;;2.88;1.23;;;;;;;;;;5117112;28;20047;-80
2023/07/29 05:23:26;;;;;;;3.70;1.42;;;;;;;;;;5099457;28;20474;-81
2023/07/29 05:25:52;;;;;;;3.17;1.88;;;;;;;;;;5116151;28;20058;-80
2023/07/29 05:28:18;;;;;;;1.80;1.70;;;;;;;;;;5098908;28;20051;-80
2023/07/29 05:30:44;;;;;;;4.93;1.50;;;;;;;;;;5117067;28;20408;-81
2023/07/29 05:33:11;;;;;;;2.08;1.60;;;;;;;;;;5115572;28;20101;-80
2023/07/29 05:35:37;;;;;;;4.13;1.92;;;;;;;;;;5115754;28;20121;-81
2023/07/29 05:38:06;;;;;;;4.18;2.40;;;;;;;;;;5116615;28;20048;-81
2023/07/29 05:40:32;;;;;;;2.78;2.53;;;;;;;;;;5116991;28;20058;-80
2023/07/29 05:42:58;;;;;;;4.13;2.80;;;;;;;;;;5116562;28;20100;-81
2023/07/29 05:45:24;;;;;;;4.95;2.30;;;;;;;;;;5115724;28;20040;-80
2023/07/29 05:47:50;;;;;;;2.95;2.47;;;;;;;;;;5116525;28;20134;-80
2023/07/29 05:50:16;;;;;;;4.60;2.83;;;;;;;;;;5116582;28;20059;-80
2023/07/29 05:52:42;;;;;;;4.55;2.95;;;;;;;;;;5115896;28;20044;-80
2023/07/29 05:55:08;;;;;;;6.65;3.22;;;;;;;;;;5117024;28;20050;-81
2023/07/29 05:57:34;;;;;;;4.35;3.38;;;;;;;;;;5115257;28;20172;-81
2023/07/29 06:00:00;;;;;;;4.53;3.55;;;;;;;;;;5117221;28;20039;-80
2023/07/29 06:02:26;;;;;;;4.38;3.17;;;;;;;;;;5115099;28;20126;-79
2023/07/29 06:04:52;;;;;;;7.03;3.78;;;;;;;;;;5115348;28;20481;-79
2023/07/29 06:07:19;;;;;;;4.75;4.07;;;;;;;;;;5115280;28;20051;-79
2023/07/29 06:09:45;;;;;;;4.15;3.78;;;;;;;;;;5115255;28;20542;-79
2023/07/29 06:12:11;;;;;;;5.28;3.85;;;;;;;;;;5116099;28;20047;-80
2023/07/29 06:14:37;;;;;;;6.35;4.15;;;;;;;;;;5115109;28;20092;-79
2023/07/29 06:17:03;;;;;;;6.45;4.47;;;;;;;;;;5115931;28;20046;-79
2023/07/29 06:19:29;;;;;;;5.10;4.22;;;;;;;;;;5115812;28;20052;-79
2023/07/29 06:21:58;;;;;;;5.65;4.13;;;;;;;;;;5097227;28;20507;-80
2023/07/29 06:24:24;;;;;;;4.60;4.10;;;;;;;;;;5114730;28;20051;-81
2023/07/29 06:26:50;;;;;;;5.18;4.35;;;;;;;;;;5114838;28;20493;-79
2023/07/29 06:29:16;;;;;;;4.93;4.57;;;;;;;;;;5114762;28;20393;-80
2023/07/29 06:31:42;;;;;;;4.55;4.15;;;;;;;;;;5115786;28;20050;-80
2023/07/29 06:34:08;;;;;;;6.10;4.50;;;;;;;;;;5115763;28;20480;-79
2023/07/29 06:36:34;;;;;;;5.50;4.20;;;;;;;;;;5115249;28;20497;-79
2023/07/29 06:39:01;;;;;;;4.85;3.75;;;;;;;;;;5114628;28;20051;-80
2023/07/29 06:41:27;;;;;;;4.75;3.80;;;;;;;;;;5115710;28;20054;-80
2023/07/29 06:43:53;;;;;;;4.20;3.80;;;;;;;;;;5114031;28;20489;-80
2023/07/29 06:46:19;;;;;;;5.68;3.67;;;;;;;;;;5114485;28;20218;-80
2023/07/29 06:48:45;;;;;;;3.83;3.47;;;;;;;;;;5114430;28;20044;-80
2023/07/29 06:51:12;;;;;;;4.93;3.25;;;;;;;;;;5097388;28;20113;-80
2023/07/29 06:53:38;;;;;;;4.07;2.90;;;;;;;;;;5114274;28;20059;-80
2023/07/29 06:56:04;;;;;;;5.68;3.78;;;;;;;;;;5115210;28;20121;-79
2023/07/29 06:58:30;;;;;;;5.95;3.67;;;;;;;;;;5114575;28;20051;-79
2023/07/29 07:00:56;;;;;;;4.53;3.33;;;;;;;;;;5115209;28;20481;-80
2023/07/29 07:03:23;;;;;;;4.55;3.58;;;;;;;;;;5097187;28;20130;-80
2023/07/29 07:05:49;;;;;;;4.35;3.72;;;;;;;;;;5113965;28;20481;-79
2023/07/29 07:08:15;;;;;;;5.22;3.72;;;;;;;;;;5114153;28;20054;-79
2023/07/29 07:10:41;;;;;;;4.10;3.78;;;;;;;;;;5115206;28;20047;-80
2023/07/29 07:13:07;;;;;;;5.40;3.55;;;;;;;;;;5114017;28;20051;-80
2023/07/29 07:15:33;;;;;;;6.05;4.20;;;;;;;;;;5114255;28;20048;-80
2023/07/29 07:17:59;;;;;;;4.00;3.60;;;;;;;;;;5115004;28;20130;-80
2023/07/29 07:20:25;;;;;;;6.97;4.30;;;;;;;;;;5113827;28;20485;-80
2023/07/29 07:22:51;;;;;;;4.38;3.70;;;;;;;;;;5113921;28;20082;-80
2023/07/29 07:25:17;;;;;;;4.13;3.75;;;;;;;;;;5114381;28;20048;-80
2023/07/29 07:27:43;;;;;;;4.47;3.15;;;;;;;;;;5115539;28;20047;-80
2023/07/29 07:30:10;;;;;;;4.22;3.83;;;;;;;;;;5114125;28;20043;-80
2023/07/29 07:32:36;;;;;;;5.80;3.28;;;;;;;;;;5096538;28;20044;-80
2023/07/29 07:35:02;;;;;;;5.15;3.45;;;;;;;;;;5113416;28;20138;-80
2023/07/29 07:37:28;;;;;;;5.40;3.50;;;;;;;;;;5113393;28;20082;-80
2023/07/29 07:39:54;;;;;;;3.88;2.85;;;;;;;;;;5113807;28;20051;-80
2023/07/29 07:42:20;;;;;;;6.75;3.58;;;;;;;;;;5113542;28;20446;-80
2023/07/29 07:44:46;;;;;;;4.00;2.83;;;;;;;;;;5114409;28;20040;-80
2023/07/29 07:47:12;;;;;;;3.50;3.20;;;;;;;;;;5113728;28;20051;-80
2023/07/29 07:49:38;;;;;;;3.60;2.45;;;;;;;;;;5113273;28;20051;-80
2023/07/29 07:52:05;;;;;;;5.43;2.75;;;;;;;;;;5114561;28;20538;-80
2023/07/29 07:54:31;;;;;;;3.65;2.20;;;;;;;;;;5096865;28;20035;-81
2023/07/29 07:56:57;;;;;;;2.58;2.38;;;;;;;;;;5113308;28;20054;-81
2023/07/29 07:59:23;;;;;;;4.00;3.05;;;;;;;;;;5097319;28;20322;-81
2023/07/29 08:01:50;;;;;;;4.63;2.50;;;;;;;;;;5114326;28;20040;-80
2023/07/29 08:04:16;;;;;;;2.92;2.17;;;;;;;;;;5114463;28;20062;-81
2023/07/29 08:06:42;;;;;;;3.45;2.42;;;;;;;;;;5113497;28;20058;-81
2023/07/29 08:09:08;;;;;;;2.75;2.05;;;;;;;;;;5113196;28;20047;-81
2023/07/29 08:11:34;;;;;;;1.98;1.55;;;;;;;;;;5114073;28;20550;-82
2023/07/29 08:14:00;;;;;;;2.35;1.20;;;;;;;;;;5113636;28;20047;-82
2023/07/29 08:16:26;;;;;;;2.80;1.38;;;;;;;;;;5113763;28;20054;-81
2023/07/29 08:18:52;;;;;;;3.05;1.20;;;;;;;;;;5096482;28;20062;-81
2023/07/29 08:21:18;;;;;;;2.63;1.20;;;;;;;;;;5113805;28;20047;-82
2023/07/29 08:23:44;;;;;;;2.72;1.83;;;;;;;;;;5096079;28;20092;-82
2023/07/29 08:26:10;;;;;;;1.80;1.30;;;;;;;;;;5113064;28;20477;-82
2023/07/29 08:28:40;;;;;;;3.67;1.38;;;;;;;;;;5114485;28;20087;-81
2023/07/29 08:31:06;;;;;;;3.88;1.10;;;;;;;;;;5114079;28;20051;-81
2023/07/29 08:33:33;;;;;;;2.28;1.08;;;;;;;;;;5096245;28;20099;-81
2023/07/29 08:35:59;;;;;;;1.85;1.02;;;;;;;;;;5114541;28;20378;-81
2023/07/29 08:38:26;;;;;;;3.17;1.13;;;;;;;;;;5113708;28;20066;-81
2023/07/29 08:41:11;;;;;;;2.72;1.13;;;;;;;;;;5114873;28;20052;-81
2023/07/29 08:43:39;;;;;;;4.93;1.42;;;;;;;;;;5113369;28;20051;-81
2023/07/29 08:46:06;;;;;;;1.52;0.95;;;;;;;;;;5117004;28;20048;-82
2023/07/29 08:48:42;;;;;;;2.08;1.00;;;;;;;;;;5117402;28;20051;-81
2023/07/29 08:51:09;;;;;;;3.72;1.13;;;;;;;;;;5117803;28;20439;-81
2023/07/29 08:53:35;;;;;;;3.05;0.80;;;;;;;;;;5118204;28;20130;-81
2023/07/29 08:56:01;;;;;;;4.28;0.80;;;;;;;;;;5118544;28;20412;-79
2023/07/29 08:58:28;;;;;;;2.35;0.70;;;;;;;;;;5118111;28;20063;-81
2023/07/29 09:00:54;;;;;;;3.60;0.68;;;;;;;;;;5116534;28;20134;-81
2023/07/29 09:03:20;;;;;;;1.95;1.00;;;;;;;;;;5117365;28;20453;-82
2023/07/29 09:05:47;;;;;;;2.38;0.80;;;;;;;;;;5117477;28;20481;-82
2023/07/29 09:08:14;;;;;;;1.55;0.60;;;;;;;;;;5117290;28;20070;-82
2023/07/29 09:10:40;;;;;;;2.63;0.80;;;;;;;;;;5118485;28;20115;-82
2023/07/29 09:13:06;;;;;;;4.45;0.73;;;;;;;;;;5118569;28;20051;-82
2023/07/29 09:15:37;;;;;;;1.67;0.73;;;;;;;;;;5116938;28;20471;-81
2023/07/29 09:18:10;;;;;;;3.00;0.50;;;;;;;;;;5117897;28;20099;-81
2023/07/29 09:20:36;;;;;;;2.38;0.60;;;;;;;;;;5117116;28;20044;-82
2023/07/29 09:23:02;;;;;;;3.22;0.55;;;;;;;;;;5116337;28;20481;-81
2023/07/29 09:25:29;;;;;;;1.38;0.40;;;;;;;;;;5118237;28;20079;-82
2023/07/29 09:27:59;;;;;;;1.05;0.40;;;;;;;;;;5100232;28;20056;-82
2023/07/29 09:30:25;;;;;;;1.77;0.40;;;;;;;;;;5116572;28;20047;-81
2023/07/29 09:32:58;;;;;;;1.63;0.50;;;;;;;;;;5117889;28;20048;-82
2023/07/29 09:35:26;;;;;;;1.05;0.50;;;;;;;;;;5117620;28;20051;-82
2023/07/29 09:37:52;;;;;;;0.90;0.40;;;;;;;;;;5117526;28;20385;-82
2023/07/29 09:40:18;;;;;;;1.42;0.60;;;;;;;;;;5116629;28;20090;-82
2023/07/29 09:42:49;;;;;;;0.82;0.40;;;;;;;;;;5116620;28;20043;-82
2023/07/29 09:45:20;;;;;;;0.80;0.30;;;;;;;;;;5116407;28;20056;-82
2023/07/29 09:47:47;;;;;;;1.63;0.30;;;;;;;;;;5116765;28;20047;-82
2023/07/29 09:50:13;;;;;;;5.13;0.95;;;;;;;;;;5116316;28;20489;-82
2023/07/29 09:52:39;;;;;;;1.63;0.52;;;;;;;;;;5116133;28;20047;-81
2023/07/29 09:55:08;;;;;;;1.20;0.30;;;;;;;;;;5115879;28;20046;-82
2023/07/29 09:57:35;;;;;;;0.98;0.50;;;;;;;;;;5116000;28;20044;-82
2023/07/29 10:00:05;;;;;;;2.92;0.50;;;;;;;;;;5116000;28;20051;-81
2023/07/29 10:02:31;;;;;;;1.42;0.50;;;;;;;;;;5116472;28;20105;-82
2023/07/29 10:04:58;;;;;;;2.28;0.47;;;;;;;;;;5116873;28;20056;-82
2023/07/29 10:07:25;;;;;;;1.20;0.30;;;;;;;;;;5115378;28;20051;-82
2023/07/29 10:09:52;;;;;;;1.60;0.30;;;;;;;;;;5116737;28;20481;-83
2023/07/29 10:12:19;;;;;;;1.00;0.30;;;;;;;;;;5115266;28;20510;-82
2023/07/29 10:14:46;;;;;;;2.10;0.40;;;;;;;;;;5115732;28;20052;-83
2023/07/29 10:17:12;;;;;;;1.38;0.30;;;;;;;;;;5115216;28;20039;-82
2023/07/29 10:19:39;;;;;;;1.10;0.30;;;;;;;;;;5115878;28;20044;-82
2023/07/29 10:22:06;;;;;;;1.35;0.47;;;;;;;;;;5115158;28;20481;-82
2023/07/29 10:24:33;;;;;;;1.42;0.47;;;;;;;;;;5115508;28;20052;-83
2023/07/29 10:27:00;;;;;;;2.67;0.52;;;;;;;;;;5115885;28;20048;-82
2023/07/29 10:29:30;;;;;;;2.35;0.60;;;;;;;;;;5115778;28;20043;-82
2023/07/29 10:31:57;;;;;;;1.65;0.80;;;;;;;;;;5116008;28;20051;-82
2023/07/29 10:34:24;;;;;;;1.00;0.82;;;;;;;;;;5115043;28;20047;-82
2023/07/29 10:36:52;;;;;;;0.90;0.90;;;;;;;;;;5116627;28;20043;-83
2023/07/29 10:39:18;;;;;;;2.63;1.40;;;;;;;;;;5115469;28;20078;-83
2023/07/29 10:41:57;;;;;;;1.38;0.90;;;;;;;;;;5114877;28;20039;-83
2023/07/29 10:44:46;;;;;;;1.42;1.10;;;;;;;;;;5097527;28;20090;-83
2023/07/29 10:47:13;;;;;;;2.75;1.30;;;;;;;;;;5098981;28;20044;-82
2023/07/29 10:49:42;;;;;;;1.42;1.33;;;;;;;;;;5116147;28;20047;-83
2023/07/29 10:52:08;;;;;;;2.08;1.40;;;;;;;;;;5115268;28;20131;-82
2023/07/29 10:54:43;;;;;;;2.45;1.30;;;;;;;;;;5114807;28;20101;-83
2023/07/29 10:57:14;;;;;;;1.98;1.20;;;;;;;;;;5097798;28;20044;-82
2023/07/29 10:59:40;;;;;;;0.90;0.77;;;;;;;;;;5114270;28;20071;-83
2023/07/29 11:02:16;;;;;;;2.05;1.27;;;;;;;;;;5114386;28;20047;-82
2023/07/29 11:04:51;;;;;;;1.52;1.08;;;;;;;;;;5114889;28;20043;-83
2023/07/29 11:07:17;;;;;;;3.03;1.00;;;;;;;;;;5097952;28;20051;-82
2023/07/29 11:09:49;;;;;;;1.65;1.48;;;;;;;;;;5097645;28;20048;-83
2023/07/29 11:12:34;;;;;;;1.67;1.48;;;;;;;;;;5114856;28;20051;-83
2023/07/29 11:15:03;;;;;;;1.65;1.50;;;;;;;;;;5114656;28;20047;-83
2023/07/29 11:17:31;;;;;;;1.38;1.27;;;;;;;;;;5115576;28;20050;-83
2023/07/29 11:19:59;;;;;;;1.50;1.23;;;;;;;;;;5097520;28;20135;-83
2023/07/29 11:22:26;;;;;;;2.28;1.58;;;;;;;;;;5115271;28;20043;-83
2023/07/29 11:24:52;;;;;;;1.48;1.38;;;;;;;;;;5114593;28;20050;-83
2023/07/29 11:27:18;;;;;;;3.22;1.30;;;;;;;;;;5115240;28;20134;-83
2023/07/29 11:29:44;;;;;;;1.90;1.60;;;;;;;;;;5113845;28;20408;-83
2023/07/29 11:32:10;;;;;;;1.67;1.10;;;;;;;;;;5114776;28;20047;-82
2023/07/29 11:34:37;;;;;;;1.65;1.33;;;;;;;;;;5114466;28;20048;-83
2023/07/29 11:37:03;;;;;;;1.92;1.10;;;;;;;;;;5113694;28;20069;-83
2023/07/29 11:39:29;;;;;;;2.08;1.10;;;;;;;;;;5114398;28;20044;-83
2023/07/29 11:41:55;;;;;;;2.95;1.20;;;;;;;;;;5113287;28;20161;-82
2023/07/29 11:44:21;;;;;;;1.92;1.77;;;;;;;;;;5113492;28;20414;-83
2023/07/29 11:46:48;;;;;;;1.88;1.35;;;;;;;;;;5113871;28;20050;-83
2023/07/29 11:49:15;;;;;;;3.13;1.20;;;;;;;;;;5113699;28;20485;-83
2023/07/29 11:51:42;;;;;;;2.38;1.20;;;;;;;;;;5113983;28;20417;-83
2023/07/29 11:54:21;;;;;;;1.73;1.48;;;;;;;;;;5114762;28;20050;-82
2023/07/29 11:56:47;;;;;;;2.28;1.10;;;;;;;;;;5114203;28;20049;-83
2023/07/29 11:59:13;;;;;;;2.83;1.60;;;;;;;;;;5113970;28;20108;-83
2023/07/29 12:01:40;;;;;;;2.85;1.10;;;;;;;;;;5097197;28;20055;-83
2023/07/29 12:04:06;;;;;;;2.78;0.98;;;;;;;;;;5114398;28;20040;-84
2023/07/29 12:06:33;;;;;;;2.30;0.80;;;;;;;;;;5114193;28;20070;-83
2023/07/29 12:08:59;;;;;;;1.45;0.75;;;;;;;;;;5113762;28;20509;-83
2023/07/29 12:11:25;;;;;;;2.67;1.10;;;;;;;;;;5114193;28;20113;-83
2023/07/29 12:13:53;;;;;;;3.22;0.70;;;;;;;;;;5114735;28;20130;-83
2023/07/29 12:16:19;;;;;;;8.77;0.90;;;;;;;;;;5113985;28;20557;-84
2023/07/29 12:18:46;;;;;;;1.30;0.50;;;;;;;;;;5114619;28;20399;-84
2023/07/29 12:21:14;;;;;;;3.75;1.02;;;;;;;;;;5118766;28;20048;-84
2023/07/29 12:23:40;;;;;;;1.08;0.40;;;;;;;;;;5118500;28;20051;-83
2023/07/29 12:26:06;;;;;;;1.50;0.40;;;;;;;;;;5118154;28;20093;-83
2023/07/29 12:28:32;;;;;;;1.25;0.50;;;;;;;;;;5118781;28;20047;-83
2023/07/29 12:30:59;;;;;;;0.80;0.50;;;;;;;;;;5118233;28;20057;-83
2023/07/29 12:33:32;;;;;;;1.98;0.60;;;;;;;;;;5118380;28;20052;-83
2023/07/29 12:35:58;;;;;;;0.85;0.40;;;;;;;;;;5117525;28;20051;-83
2023/07/29 12:38:28;;;;;;;2.25;0.52;;;;;;;;;;5118512;28;20461;-83
2023/07/29 12:40:54;;;;;;;1.38;0.50;;;;;;;;;;5118428;28;20396;-84
2023/07/29 12:43:20;;;;;;;1.60;0.50;;;;;;;;;;5101315;28;20389;-84
2023/07/29 12:45:46;;;;;;;2.00;0.50;;;;;;;;;;5117477;28;20044;-84
2023/07/29 12:48:12;;;;;;;1.25;0.60;;;;;;;;;;5117134;28;20082;-83
2023/07/29 12:50:39;;;;;;;1.00;0.40;;;;;;;;;;5118417;28;20134;-84
2023/07/29 12:53:05;;;;;;;0.90;0.40;;;;;;;;;;5117473;28;20470;-83
2023/07/29 12:55:31;;;;;;;0.90;0.30;;;;;;;;;;5118745;28;20044;-84
2023/07/29 12:58:00;;;;;;;3.65;0.40;;;;;;;;;;5118271;28;20172;-83
2023/07/29 13:00:27;;;;;;;1.10;0.50;;;;;;;;;;5117936;28;20046;-83
2023/07/29 13:02:53;;;;;;;1.00;0.50;;;;;;;;;;5116304;28;20482;-83
2023/07/29 13:05:19;;;;;;;3.58;0.77;;;;;;;;;;5101057;28;20182;-84
2023/07/29 13:07:45;;;;;;;2.15;0.45;;;;;;;;;;5117160;28;20082;-84
2023/07/29 13:10:11;;;;;;;2.53;0.90;;;;;;;;;;5118715;28;20140;-87
2023/07/29 13:12:37;;;;;;;2.63;0.95;;;;;;;;;;5100295;28;20487;-87
2023/07/29 13:15:04;;;;;;;0.90;0.80;;;;;;;;;;5117404;28;20051;-87
2023/07/29 13:17:30;;;;;;;3.15;1.00;;;;;;;;;;5100340;28;20133;-86
2023/07/29 13:19:56;;;;;;;1.83;0.90;;;;;;;;;;5117609;28;20048;-86
2023/07/29 13:22:22;;;;;;;2.60;0.70;;;;;;;;;;5117331;28;20036;-86
2023/07/29 13:24:48;;;;;;;2.38;0.65;;;;;;;;;;5117245;28;20043;-86
2023/07/29 13:27:14;;;;;;;2.00;1.10;;;;;;;;;;5117310;28;20381;-86
2023/07/29 13:29:41;;;;;;;1.92;1.00;;;;;;;;;;5117056;28;20063;-85
2023/07/29 13:32:07;;;;;;;3.63;0.82;;;;;;;;;;5115273;28;20051;-85
2023/07/29 13:34:34;;;;;;;2.50;0.68;;;;;;;;;;5116065;28;20051;-85
2023/07/29 13:37:00;;;;;;;3.08;0.45;;;;;;;;;;5117469;28;20051;-84
2023/07/29 13:39:27;;;;;;;1.27;0.38;;;;;;;;;;5100001;28;20438;-83
2023/07/29 13:41:53;;;;;;;0.98;0.20;;;;;;;;;;5116801;28;20093;-84
2023/07/29 13:44:19;;;;;;;1.55;0.38;;;;;;;;;;5117491;28;20048;-84
2023/07/29 13:46:45;;;;;;;2.08;0.30;;;;;;;;;;5117532;28;20442;-84
2023/07/29 13:49:11;;;;;;;0.82;0.32;;;;;;;;;;5116301;28;20051;-83
2023/07/29 13:51:38;;;;;;;0.80;0.30;;;;;;;;;;5116062;28;20109;-84
2023/07/29 13:54:04;;;;;;;0.95;0.50;;;;;;;;;;5116934;28;20047;-83
2023/07/29 13:56:30;;;;;;;3.53;0.30;;;;;;;;;;5115939;28;20047;-83
2023/07/29 13:58:56;;;;;;;1.60;0.38;;;;;;;;;;5116992;28;20047;-83
2023/07/29 14:01:22;;;;;;;0.65;0.30;;;;;;;;;;5098960;28;20047;-83
2023/07/29 14:03:48;;;;;;;0.40;0.20;;;;;;;;;;5115991;28;20094;-84
2023/07/29 14:06:14;;;;;;;1.40;0.60;;;;;;;;;;5115285;28;20549;-83
2023/07/29 14:08:41;;;;;;;0.82;0.40;;;;;;;;;;5116655;28;20047;-84
2023/07/29 14:11:08;;;;;;;1.38;0.30;;;;;;;;;;5115495;28;20051;-84
2023/07/29 14:13:34;;;;;;;0.55;0.30;;;;;;;;;;5097869;28;20047;-84
2023/07/29 14:16:03;;;;;;;1.25;0.30;;;;;;;;;;5116341;28;20097;-83
2023/07/29 14:18:30;;;;;;;0.52;0.30;;;;;;;;;;5114949;28;20077;-84
2023/07/29 14:20:56;;;;;;;0.30;0.20;;;;;;;;;;5116739;28;20043;-84
2023/07/29 14:23:22;;;;;;;0.28;0.20;;;;;;;;;;5116333;28;20469;-84
2023/07/29 14:25:48;;;;;;;0.57;0.20;;;;;;;;;;5117537;28;20051;-85
2023/07/29 14:28:14;;;;;;;0.73;0.20;;;;;;;;;;5116538;28;20083;-84
2023/07/29 14:30:41;;;;;;;1.58;0.30;;;;;;;;;;5116546;28;20048;-84
2023/07/29 14:33:07;;;;;;;0.75;0.30;;;;;;;;;;5115692;28;20040;-84
2023/07/29 14:35:33;;;;;;;0.50;0.20;;;;;;;;;;5115659;28;20091;-84
2023/07/29 14:37:59;;;;;;;0.60;0.20;;;;;;;;;;5117096;28;20096;-83
2023/07/29 14:40:26;;;;;;;0.63;0.22;;;;;;;;;;5115323;28;20086;-84